Private Wetterstation Wechselburg
Wetterdaten: Woche 21.08.23 - 27.08.23 (KW34)
Datum Zeit Temp. +2m Bodentemp. Temp.+5cm Temp. Wind Windchill X Diff Temp. Feuchte +2m Feuchte +5cm Luftdruck Regen Wind Richtung Sonnenschein Taupunkt Windchill Windben
21.08.2023 00:00 21,6 C 23,2 C 20,9 C 22,9 C 22,9 C 1,3 C 85 % 89 % 1017,4 hPa 0,0 l/m 0,0 km/h (0 Bft) - - 0,00 h 18,9 C 22,9 C 0,0 km/h (0 Bft)
21.08.2023 01:00 20,9 C 23,1 C 20,3 C 22,9 C 22,9 C 2,0 C 86 % 90 % 1017,1 hPa 0,0 l/m 0,0 km/h (0 Bft) - - 0,00 h 18,4 C 22,9 C 0,0 km/h (0 Bft)
21.08.2023 02:00 20,5 C 23,0 C 20,1 C 22,9 C 22,9 C 2,4 C 87 % 90 % 1017,1 hPa 0,0 l/m 0,0 km/h (0 Bft) - - 0,00 h 18,2 C 22,9 C 0,0 km/h (0 Bft)
21.08.2023 03:00 19,9 C 22,9 C 19,5 C 19,9 C 19,4 C 0,2 C 87 % 90 % 1016,9 hPa 0,0 l/m 0,0 km/h (0 Bft) - - 0,00 h 17,7 C 19,4 C 0,0 km/h (0 Bft)
21.08.2023 04:00 19,3 C 22,8 C 19,0 C 19,0 C 18,5 C 0,0 C 88 % 90 % 1016,9 hPa 0,0 l/m 0,0 km/h (0 Bft) - - 0,00 h 17,2 C 18,5 C 0,0 km/h (0 Bft)
21.08.2023 05:00 18,7 C 22,6 C 18,4 C 18,4 C 18,0 C 0,0 C 88 % 90 % 1016,9 hPa 0,0 l/m 0,0 km/h (0 Bft) - - 0,00 h 16,6 C 18,0 C 0,0 km/h (0 Bft)
21.08.2023 06:00 18,1 C 22,4 C 18,1 C 17,9 C 17,6 C 0,0 C 88 % 90 % 1017,0 hPa 0,0 l/m 0,0 km/h (0 Bft) - - 0,00 h 16,0 C 17,6 C 0,0 km/h (0 Bft)
21.08.2023 07:00 18,4 C 22,3 C 19,6 C 21,4 C 21,4 C 3,0 C 88 % 90 % 1017,3 hPa 0,0 l/m 0,0 km/h (0 Bft) - - 0,75 h 16,4 C 21,4 C 0,0 km/h (0 Bft)
21.08.2023 08:00 20,3 C 22,2 C 20,8 C 26,3 C 26,3 C 6,1 C 88 % 90 % 1017,6 hPa 0,0 l/m 0,0 km/h (0 Bft) - - 1,00 h 18,2 C 26,3 C 0,0 km/h (0 Bft)
21.08.2023 09:00 24,2 C 21,9 C 22,3 C 28,6 C 28,6 C 4,4 C 82 % 86 % 1017,9 hPa 0,0 l/m 0,0 km/h (0 Bft) - - 1,00 h 20,8 C 28,6 C 0,0 km/h (0 Bft)
21.08.2023 10:00 25,0 C 21,7 C 23,6 C 28,6 C 28,6 C 3,6 C 73 % 78 % 1018,1 hPa 0,0 l/m 0,0 km/h (0 Bft) - - 0,77 h 19,9 C 28,6 C 0,0 km/h (0 Bft)
21.08.2023 11:00 26,2 C 21,7 C 25,1 C 28,6 C 28,6 C 2,4 C 68 % 70 % 1018,1 hPa 0,0 l/m 0,0 km/h (0 Bft) - - 0,00 h 19,8 C 28,6 C 0,0 km/h (0 Bft)
21.08.2023 12:00 27,6 C 21,7 C 26,0 C 28,6 C 28,6 C 1,0 C 61 % 63 % 1018,1 hPa 0,0 l/m 0,0 km/h (0 Bft) - - 0,00 h 19,5 C 28,6 C 0,0 km/h (0 Bft)
21.08.2023 13:00 29,3 C 21,7 C 26,9 C 29,1 C 28,6 C 0,0 C 57 % 61 % 1017,8 hPa 0,0 l/m 0,0 km/h (0 Bft) - - 0,00 h 19,9 C 28,6 C 0,0 km/h (0 Bft)
21.08.2023 14:00 30,3 C 21,8 C 29,2 C 29,7 C 28,6 C 0,0 C 54 % 57 % 1017,7 hPa 0,0 l/m 0,0 km/h (0 Bft) - - 0,00 h 19,8 C 28,6 C 0,0 km/h (0 Bft)
21.08.2023 15:00 29,6 C 21,9 C 28,9 C 29,3 C 28,6 C 0,0 C 55 % 57 % 1017,6 hPa 0,0 l/m 0,0 km/h (0 Bft) - - 0,00 h 19,5 C 28,6 C 0,0 km/h (0 Bft)
21.08.2023 16:00 30,2 C 22,1 C 29,1 C 29,6 C 28,6 C 0,0 C 53 % 56 % 1017,3 hPa 0,0 l/m 0,0 km/h (0 Bft) - - 0,00 h 19,6 C 28,6 C 0,0 km/h (0 Bft)
21.08.2023 17:00 29,6 C 22,2 C 28,6 C 29,3 C 28,6 C 0,0 C 53 % 56 % 1017,0 hPa 0,0 l/m 0,0 km/h (0 Bft) - - 0,00 h 19,1 C 28,6 C 0,0 km/h (0 Bft)
21.08.2023 18:00 29,1 C 22,4 C 27,9 C 28,9 C 28,6 C 0,0 C 55 % 56 % 1016,9 hPa 0,0 l/m 0,0 km/h (0 Bft) - - 0,00 h 19,0 C 28,6 C 0,0 km/h (0 Bft)
21.08.2023 19:00 28,0 C 22,5 C 26,5 C 28,6 C 28,6 C 0,6 C 56 % 59 % 1016,8 hPa 0,0 l/m 0,0 km/h (0 Bft) - - 0,33 h 18,5 C 28,6 C 0,0 km/h (0 Bft)
21.08.2023 20:00 25,6 C 22,5 C 23,8 C 28,6 C 28,6 C 3,0 C 63 % 67 % 1016,8 hPa 0,0 l/m 0,0 km/h (0 Bft) - - 0,17 h 17,9 C 28,6 C 0,0 km/h (0 Bft)
21.08.2023 21:00 23,4 C 22,5 C 22,0 C 28,6 C 28,6 C 5,2 C 69 % 72 % 1017,2 hPa 0,0 l/m 0,0 km/h (0 Bft) - - 0,00 h 17,3 C 28,6 C 0,0 km/h (0 Bft)
21.08.2023 22:00 21,7 C 22,5 C 20,6 C 28,6 C 28,6 C 6,9 C 73 % 75 % 1017,2 hPa 0,0 l/m 0,0 km/h (0 Bft) - - 0,00 h 16,8 C 28,6 C 0,0 km/h (0 Bft)
21.08.2023 23:00 20,4 C 22,6 C 19,6 C 28,6 C 28,6 C 8,2 C 78 % 79 % 1017,3 hPa 0,0 l/m 0,0 km/h (0 Bft) - - 0,00 h 16,4 C 28,6 C 0,0 km/h (0 Bft)
22.08.2023 00:00 19,4 C 22,5 C 19,0 C 28,6 C 28,6 C 9,2 C 82 % 81 % 1017,1 hPa 0,0 l/m 0,0 km/h (0 Bft) - - 0,00 h 16,2 C 28,6 C 0,0 km/h (0 Bft)
22.08.2023 01:00 18,7 C 22,3 C 18,4 C 28,6 C 28,6 C 9,9 C 84 % 81 % 1016,6 hPa 0,0 l/m 0,0 km/h (0 Bft) - - 0,00 h 15,9 C 28,6 C 0,0 km/h (0 Bft)
22.08.2023 02:00 18,4 C 22,2 C 18,3 C 28,6 C 28,6 C 10,2 C 85 % 82 % 1016,4 hPa 0,0 l/m 0,0 km/h (0 Bft) - - 0,00 h 15,8 C 28,6 C 0,0 km/h (0 Bft)
22.08.2023 03:00 18,3 C 22,1 C 18,1 C 28,6 C 28,6 C 10,4 C 85 % 82 % 1016,0 hPa 0,0 l/m 0,0 km/h (0 Bft) - - 0,00 h 15,7 C 28,6 C 0,0 km/h (0 Bft)
22.08.2023 04:00 17,9 C 22,1 C 17,6 C 28,6 C 28,6 C 10,7 C 86 % 84 % 1015,7 hPa 0,0 l/m 0,0 km/h (0 Bft) - - 0,00 h 15,5 C 28,6 C 0,0 km/h (0 Bft)
22.08.2023 05:00 17,5 C 22,0 C 17,0 C 28,6 C 28,6 C 11,2 C 86 % 85 % 1015,3 hPa 0,0 l/m 0,0 km/h (0 Bft) - - 0,00 h 15,1 C 28,6 C 0,0 km/h (0 Bft)
22.08.2023 06:00 17,1 C 21,9 C 16,8 C 28,6 C 28,6 C 11,5 C 87 % 89 % 1015,1 hPa 0,0 l/m 0,0 km/h (0 Bft) - - 0,73 h 14,8 C 28,6 C 0,0 km/h (0 Bft)
22.08.2023 07:00 17,7 C 21,7 C 18,2 C 28,6 C 28,6 C 10,9 C 88 % 88 % 1015,2 hPa 0,0 l/m 0,0 km/h (0 Bft) - - 1,00 h 15,6 C 28,6 C 0,0 km/h (0 Bft)
22.08.2023 08:00 20,7 C 21,5 C 20,5 C 28,6 C 28,6 C 7,9 C 87 % 84 % 1015,0 hPa 0,0 l/m 0,0 km/h (0 Bft) - - 1,00 h 18,4 C 28,6 C 0,0 km/h (0 Bft)
22.08.2023 09:00 23,9 C 21,3 C 21,9 C 28,6 C 28,6 C 4,7 C 79 % 83 % 1015,0 hPa 0,0 l/m 0,0 km/h (0 Bft) - - 1,00 h 20,0 C 28,6 C 0,0 km/h (0 Bft)
22.08.2023 10:00 26,0 C 21,2 C 24,4 C 28,6 C 28,6 C 2,6 C 73 % 78 % 1014,8 hPa 0,0 l/m 0,0 km/h (0 Bft) - - 0,08 h 20,6 C 28,6 C 0,0 km/h (0 Bft)
22.08.2023 11:00 26,9 C 21,3 C 25,7 C 28,6 C 28,6 C 1,8 C 68 % 71 % 1014,7 hPa 0,0 l/m 0,0 km/h (0 Bft) - - 0,00 h 20,4 C 28,6 C 0,0 km/h (0 Bft)
22.08.2023 12:00 28,5 C 21,5 C 27,1 C 28,9 C 28,6 C 0,5 C 63 % 66 % 1014,6 hPa 0,0 l/m 0,0 km/h (0 Bft) - - 0,00 h 20,9 C 28,6 C 0,0 km/h (0 Bft)
22.08.2023 13:00 29,8 C 21,5 C 27,4 C 29,4 C 28,6 C 0,0 C 58 % 63 % 1014,7 hPa 0,0 l/m 0,0 km/h (0 Bft) - - 0,00 h 20,7 C 28,6 C 0,0 km/h (0 Bft)
22.08.2023 14:00 29,6 C 21,5 C 28,8 C 29,3 C 28,6 C 0,0 C 57 % 58 % 1014,4 hPa 0,0 l/m 0,0 km/h (0 Bft) - - 0,00 h 20,1 C 28,6 C 0,0 km/h (0 Bft)
22.08.2023 15:00 30,0 C 21,5 C 29,4 C 29,5 C 28,6 C 0,0 C 54 % 55 % 1014,4 hPa 0,0 l/m 0,0 km/h (0 Bft) - - 0,00 h 19,5 C 28,6 C 0,0 km/h (0 Bft)
22.08.2023 16:00 28,0 C 21,5 C 27,1 C 28,6 C 28,6 C 0,6 C 58 % 58 % 1014,5 hPa 0,0 l/m 0,0 km/h (0 Bft) - - 0,00 h 19,0 C 28,6 C 0,0 km/h (0 Bft)
22.08.2023 17:00 27,5 C 21,5 C 26,7 C 28,6 C 28,6 C 1,2 C 59 % 58 % 1014,4 hPa 0,0 l/m 0,0 km/h (0 Bft) - - 0,00 h 18,7 C 28,6 C 0,0 km/h (0 Bft)
22.08.2023 18:00 26,7 C 21,5 C 25,9 C 28,6 C 28,6 C 1,9 C 60 % 58 % 1014,6 hPa 0,0 l/m 0,0 km/h (0 Bft) - - 0,17 h 18,2 C 28,6 C 0,0 km/h (0 Bft)
22.08.2023 19:00 25,5 C 21,6 C 24,7 C 28,6 C 28,6 C 3,1 C 62 % 60 % 1014,5 hPa 0,0 l/m 0,0 km/h (0 Bft) - - 1,00 h 17,6 C 28,6 C 0,0 km/h (0 Bft)
22.08.2023 20:00 24,0 C 22,3 C 22,8 C 28,6 C 28,6 C 4,6 C 66 % 69 % 1015,1 hPa 0,0 l/m 0,0 km/h (0 Bft) - - 0,17 h 17,4 C 28,6 C 0,0 km/h (0 Bft)
22.08.2023 21:00 22,5 C 22,3 C 21,5 C 28,6 C 28,6 C 6,1 C 73 % 74 % 1015,2 hPa 0,0 l/m 0,0 km/h (0 Bft) - - 0,00 h 17,4 C 28,6 C 0,0 km/h (0 Bft)
22.08.2023 22:00 21,4 C 22,3 C 20,7 C 28,6 C 28,6 C 7,3 C 77 % 77 % 1015,4 hPa 0,0 l/m 0,0 km/h (0 Bft) - - 0,00 h 17,2 C 28,6 C 0,0 km/h (0 Bft)
22.08.2023 23:00 20,6 C 22,4 C 20,1 C 28,6 C 28,6 C 8,0 C 80 % 79 % 1015,3 hPa 0,0 l/m 0,0 km/h (0 Bft) - - 0,00 h 17,0 C 28,6 C 0,0 km/h (0 Bft)
23.08.2023 00:00 20,0 C 22,4 C 19,6 C 28,6 C 28,6 C 8,6 C 82 % 81 % 1015,2 hPa 0,0 l/m 0,0 km/h (0 Bft) - - 0,00 h 16,9 C 28,6 C 0,0 km/h (0 Bft)
23.08.2023 01:00 19,4 C 22,4 C 19,0 C 28,6 C 28,6 C 9,2 C 84 % 83 % 1015,2 hPa 0,0 l/m 0,0 km/h (0 Bft) - - 0,00 h 16,6 C 28,6 C 0,0 km/h (0 Bft)
23.08.2023 02:00 18,7 C 22,3 C 18,1 C 28,6 C 28,6 C 9,9 C 84 % 85 % 1015,1 hPa 0,0 l/m 0,0 km/h (0 Bft) - - 0,00 h 16,0 C 28,6 C 0,0 km/h (0 Bft)
23.08.2023 03:00 18,1 C 22,2 C 17,5 C 28,6 C 28,6 C 10,5 C 86 % 88 % 1015,1 hPa 0,0 l/m 0,0 km/h (0 Bft) - - 0,00 h 15,6 C 28,6 C 0,0 km/h (0 Bft)
23.08.2023 04:00 17,4 C 22,1 C 16,9 C 28,6 C 28,6 C 11,2 C 86 % 90 % 1015,2 hPa 0,0 l/m 0,0 km/h (0 Bft) - - 0,00 h 15,1 C 28,6 C 0,0 km/h (0 Bft)
23.08.2023 05:00 16,8 C 21,9 C 16,2 C 28,6 C 28,6 C 11,8 C 87 % 90 % 1015,1 hPa 0,0 l/m 0,0 km/h (0 Bft) - - 0,00 h 14,6 C 28,6 C 0,0 km/h (0 Bft)
23.08.2023 06:00 16,3 C 21,8 C 16,0 C 28,6 C 28,6 C 12,3 C 88 % 90 % 1015,5 hPa 0,0 l/m 0,0 km/h (0 Bft) - - 0,73 h 14,3 C 28,6 C 0,0 km/h (0 Bft)
23.08.2023 07:00 16,5 C 21,7 C 17,0 C 28,6 C 28,6 C 12,1 C 88 % 90 % 1015,7 hPa 0,0 l/m 0,0 km/h (0 Bft) - - 1,00 h 14,5 C 28,6 C 0,0 km/h (0 Bft)
23.08.2023 08:00 19,1 C 21,4 C 18,5 C 28,6 C 28,6 C 9,5 C 88 % 86 % 1016,1 hPa 0,0 l/m 0,0 km/h (0 Bft) - - 1,00 h 16,9 C 28,6 C 0,0 km/h (0 Bft)
23.08.2023 09:00 21,8 C 21,1 C 19,7 C 28,6 C 28,6 C 6,8 C 81 % 84 % 1015,9 hPa 0,0 l/m 0,0 km/h (0 Bft) - - 1,00 h 18,4 C 28,6 C 0,0 km/h (0 Bft)
23.08.2023 10:00 22,7 C 21,0 C 21,4 C 28,6 C 28,6 C 5,9 C 76 % 78 % 1016,1 hPa 0,0 l/m 0,0 km/h (0 Bft) - - 1,00 h 18,2 C 28,6 C 0,0 km/h (0 Bft)
23.08.2023 11:00 23,6 C 20,9 C 22,9 C 28,6 C 28,6 C 5,0 C 70 % 71 % 1016,3 hPa 0,0 l/m 0,0 km/h (0 Bft) - - 1,00 h 17,9 C 28,6 C 0,0 km/h (0 Bft)
23.08.2023 12:00 25,9 C 20,9 C 24,5 C 28,6 C 28,6 C 2,7 C 63 % 66 % 1016,4 hPa 0,0 l/m 0,0 km/h (0 Bft) - - 0,42 h 18,2 C 28,6 C 0,0 km/h (0 Bft)
23.08.2023 13:00 28,1 C 20,9 C 25,0 C 28,7 C 28,6 C 0,6 C 56 % 62 % 1015,6 hPa 0,0 l/m 0,0 km/h (0 Bft) - - 0,00 h 18,3 C 28,6 C 0,0 km/h (0 Bft)
23.08.2023 14:00 28,1 C 20,9 C 26,0 C 28,7 C 28,6 C 0,6 C 52 % 56 % 1015,4 hPa 0,0 l/m 0,0 km/h (0 Bft) - - 0,00 h 17,2 C 28,6 C 0,0 km/h (0 Bft)
23.08.2023 15:00 27,6 C 21,1 C 26,7 C 28,6 C 28,6 C 1,0 C 51 % 51 % 1015,2 hPa 0,0 l/m 0,0 km/h (0 Bft) - - 0,00 h 16,5 C 28,6 C 0,0 km/h (0 Bft)
23.08.2023 16:00 28,1 C 21,3 C 27,3 C 28,6 C 28,6 C 0,5 C 48 % 49 % 1015,1 hPa 0,0 l/m 0,0 km/h (0 Bft) - - 0,00 h 16,1 C 28,6 C 0,0 km/h (0 Bft)
23.08.2023 17:00 27,7 C 21,3 C 26,7 C 28,6 C 28,6 C 0,9 C 48 % 49 % 1014,8 hPa 0,0 l/m 0,0 km/h (0 Bft) - - 0,00 h 15,5 C 28,6 C 0,0 km/h (0 Bft)
23.08.2023 18:00 27,7 C 21,4 C 26,1 C 28,6 C 28,6 C 0,9 C 47 % 49 % 1014,6 hPa 0,0 l/m 0,0 km/h (0 Bft) - - 0,00 h 15,3 C 28,6 C 0,0 km/h (0 Bft)
23.08.2023 19:00 26,4 C 21,5 C 24,8 C 28,6 C 28,6 C 2,2 C 50 % 51 % 1014,8 hPa 0,0 l/m 0,0 km/h (0 Bft) - - 0,75 h 15,2 C 28,6 C 0,0 km/h (0 Bft)
23.08.2023 20:00 23,1 C 21,6 C 21,1 C 28,6 C 28,6 C 5,5 C 60 % 63 % 1014,9 hPa 0,0 l/m 0,0 km/h (0 Bft) - - 0,08 h 14,9 C 28,6 C 0,0 km/h (0 Bft)
23.08.2023 21:00 20,7 C 21,6 C 19,3 C 28,6 C 28,6 C 7,9 C 69 % 68 % 1015,2 hPa 0,0 l/m 0,0 km/h (0 Bft) - - 0,00 h 14,7 C 28,6 C 0,0 km/h (0 Bft)
23.08.2023 22:00 18,7 C 21,6 C 17,8 C 28,6 C 28,6 C 9,9 C 75 % 73 % 1015,6 hPa 0,0 l/m 0,0 km/h (0 Bft) - - 0,00 h 14,1 C 28,6 C 0,0 km/h (0 Bft)
23.08.2023 23:00 17,4 C 21,6 C 16,7 C 28,6 C 28,6 C 11,2 C 79 % 76 % 1015,8 hPa 0,0 l/m 0,0 km/h (0 Bft) - - 0,00 h 13,6 C 28,6 C 0,0 km/h (0 Bft)
24.08.2023 00:00 16,3 C 21,6 C 15,6 C 28,6 C 28,6 C 12,3 C 81 % 79 % 1016,1 hPa 0,0 l/m 0,0 km/h (0 Bft) - - 0,00 h 13,1 C 28,6 C 0,0 km/h (0 Bft)
24.08.2023 01:00 15,4 C 21,5 C 14,9 C 28,6 C 28,6 C 13,2 C 83 % 80 % 1016,0 hPa 0,0 l/m 0,0 km/h (0 Bft) - - 0,00 h 12,6 C 28,6 C 0,0 km/h (0 Bft)
24.08.2023 02:00 14,7 C 21,3 C 14,3 C 28,6 C 28,6 C 13,9 C 84 % 81 % 1016,1 hPa 0,0 l/m 0,0 km/h (0 Bft) - - 0,00 h 12,1 C 28,6 C 0,0 km/h (0 Bft)
24.08.2023 03:00 14,1 C 21,1 C 13,8 C 28,6 C 28,6 C 14,5 C 85 % 82 % 1016,1 hPa 0,0 l/m 0,0 km/h (0 Bft) - - 0,00 h 11,7 C 28,6 C 0,0 km/h (0 Bft)
24.08.2023 04:00 13,6 C 20,9 C 13,3 C 28,6 C 28,6 C 15,0 C 86 % 82 % 1016,1 hPa 0,0 l/m 0,0 km/h (0 Bft) - - 0,00 h 11,3 C 28,6 C 0,0 km/h (0 Bft)
24.08.2023 05:00 13,2 C 20,8 C 12,9 C 28,6 C 28,6 C 15,4 C 87 % 82 % 1015,9 hPa 0,0 l/m 0,0 km/h (0 Bft) - - 0,00 h 11,0 C 28,6 C 0,0 km/h (0 Bft)
24.08.2023 06:00 12,9 C 20,6 C 12,7 C 28,6 C 28,6 C 15,7 C 87 % 83 % 1016,2 hPa 0,0 l/m 0,0 km/h (0 Bft) - - 0,77 h 10,8 C 28,6 C 0,0 km/h (0 Bft)
24.08.2023 07:00 13,4 C 20,5 C 13,7 C 28,6 C 28,6 C 15,2 C 88 % 83 % 1016,1 hPa 0,0 l/m 0,0 km/h (0 Bft) - - 0,97 h 11,4 C 28,6 C 0,0 km/h (0 Bft)
24.08.2023 08:00 16,9 C 20,2 C 16,1 C 28,6 C 28,6 C 11,7 C 87 % 81 % 1016,2 hPa 0,0 l/m 0,0 km/h (0 Bft) - - 1,00 h 14,8 C 28,6 C 0,0 km/h (0 Bft)
24.08.2023 09:00 20,9 C 19,9 C 17,9 C 28,6 C 28,6 C 7,7 C 77 % 81 % 1015,9 hPa 0,0 l/m 0,0 km/h (0 Bft) - - 1,00 h 16,6 C 28,6 C 0,0 km/h (0 Bft)
24.08.2023 10:00 22,9 C 19,8 C 20,5 C 28,6 C 28,6 C 5,7 C 67 % 73 % 1015,9 hPa 0,0 l/m 0,0 km/h (0 Bft) - - 1,00 h 16,4 C 28,6 C 0,0 km/h (0 Bft)
24.08.2023 11:00 25,5 C 19,9 C 23,8 C 28,6 C 28,6 C 3,1 C 58 % 64 % 1015,3 hPa 0,0 l/m 0,0 km/h (0 Bft) - - 0,42 h 16,6 C 28,6 C 0,0 km/h (0 Bft)
24.08.2023 12:00 27,3 C 20,0 C 25,3 C 28,6 C 28,6 C 1,3 C 54 % 62 % 1014,6 hPa 0,0 l/m 0,0 km/h (0 Bft) - - 0,00 h 17,1 C 28,6 C 0,0 km/h (0 Bft)
24.08.2023 13:00 27,5 C 20,2 C 26,0 C 28,6 C 28,6 C 1,1 C 54 % 59 % 1013,4 hPa 0,0 l/m 0,0 km/h (0 Bft) - - 0,00 h 17,2 C 28,6 C 0,0 km/h (0 Bft)
24.08.2023 14:00 28,0 C 20,2 C 27,1 C 28,6 C 28,6 C 0,6 C 51 % 53 % 1013,0 hPa 0,0 l/m 0,0 km/h (0 Bft) - - 0,00 h 16,9 C 28,6 C 0,0 km/h (0 Bft)
24.08.2023 15:00 29,4 C 20,2 C 28,4 C 29,1 C 28,6 C 0,0 C 48 % 51 % 1012,0 hPa 0,0 l/m 0,0 km/h (0 Bft) - - 0,00 h 17,2 C 28,6 C 0,0 km/h (0 Bft)
24.08.2023 16:00 29,9 C 20,2 C 29,0 C 29,5 C 28,6 C 0,0 C 47 % 49 % 1011,4 hPa 0,0 l/m 0,0 km/h (0 Bft) - - 0,00 h 17,3 C 28,6 C 0,0 km/h (0 Bft)
24.08.2023 17:00 29,7 C 20,5 C 28,5 C 29,3 C 28,6 C 0,0 C 49 % 51 % 1010,7 hPa 0,0 l/m 0,0 km/h (0 Bft) - - 0,00 h 17,7 C 28,6 C 0,0 km/h (0 Bft)
24.08.2023 18:00 29,0 C 21,0 C 27,2 C 28,9 C 28,6 C 0,0 C 53 % 57 % 1010,4 hPa 0,0 l/m 0,0 km/h (0 Bft) - - 0,00 h 18,3 C 28,6 C 0,0 km/h (0 Bft)
24.08.2023 19:00 27,9 C 21,0 C 25,6 C 28,6 C 28,6 C 0,7 C 58 % 63 % 1010,1 hPa 0,0 l/m 0,0 km/h (0 Bft) - - 0,50 h 18,7 C 28,6 C 0,0 km/h (0 Bft)
24.08.2023 20:00 24,9 C 21,4 C 23,3 C 28,6 C 28,6 C 3,7 C 67 % 70 % 1009,8 hPa 0,0 l/m 0,0 km/h (0 Bft) - - 0,08 h 18,2 C 28,6 C 0,0 km/h (0 Bft)
24.08.2023 21:00 23,2 C 21,7 C 22,2 C 28,6 C 28,6 C 5,4 C 74 % 75 % 1008,8 hPa 0,0 l/m 0,0 km/h (0 Bft) - - 0,00 h 18,3 C 28,6 C 0,0 km/h (0 Bft)
24.08.2023 22:00 21,8 C 21,9 C 21,0 C 28,6 C 28,6 C 6,8 C 78 % 79 % 1008,1 hPa 0,0 l/m 0,0 km/h (0 Bft) - - 0,00 h 17,8 C 28,6 C 0,0 km/h (0 Bft)
24.08.2023 23:00 21,0 C 21,8 C 20,8 C 28,6 C 28,6 C 7,6 C 81 % 79 % 1008,1 hPa 0,0 l/m 0,0 km/h (0 Bft) - - 0,00 h 17,6 C 28,6 C 0,0 km/h (0 Bft)
25.08.2023 00:00 21,1 C 21,7 C 20,9 C 28,6 C 28,6 C 7,5 C 80 % 79 % 1007,4 hPa 0,0 l/m 0,0 km/h (0 Bft) - - 0,00 h 17,6 C 28,6 C 0,0 km/h (0 Bft)
25.08.2023 01:00 21,6 C 21,5 C 21,3 C 28,6 C 28,6 C 7,0 C 76 % 74 % 1007,5 hPa 0,0 l/m 0,0 km/h (0 Bft) - - 0,00 h 17,1 C 28,6 C 0,0 km/h (0 Bft)
25.08.2023 02:00 23,4 C 21,4 C 23,1 C 28,6 C 28,6 C 5,2 C 66 % 62 % 1007,2 hPa 0,0 l/m 0,0 km/h (0 Bft) - - 0,00 h 16,7 C 28,6 C 0,0 km/h (0 Bft)
25.08.2023 03:00 24,2 C 21,3 C 23,6 C 28,6 C 28,6 C 4,4 C 63 % 59 % 1007,3 hPa 0,0 l/m 0,0 km/h (0 Bft) - - 0,00 h 16,6 C 28,6 C 0,0 km/h (0 Bft)
25.08.2023 04:00 23,8 C 21,2 C 22,9 C 28,6 C 28,6 C 4,8 C 64 % 61 % 1007,4 hPa 0,0 l/m 0,0 km/h (0 Bft) - - 0,00 h 16,6 C 28,6 C 0,0 km/h (0 Bft)
25.08.2023 05:00 22,6 C 21,2 C 21,6 C 28,6 C 28,6 C 6,1 C 70 % 67 % 1007,1 hPa 0,0 l/m 0,0 km/h (0 Bft) - - 0,00 h 16,7 C 28,6 C 0,0 km/h (0 Bft)
25.08.2023 06:00 21,4 C 21,2 C 20,7 C 28,6 C 28,6 C 7,2 C 74 % 71 % 1006,9 hPa 0,0 l/m 0,0 km/h (0 Bft) - - 0,72 h 16,5 C 28,6 C 0,0 km/h (0 Bft)
25.08.2023 07:00 21,6 C 21,2 C 21,3 C 28,6 C 28,6 C 7,0 C 77 % 73 % 1006,9 hPa 0,0 l/m 0,0 km/h (0 Bft) - - 1,00 h 17,3 C 28,6 C 0,0 km/h (0 Bft)
25.08.2023 08:00 23,4 C 21,2 C 22,4 C 28,6 C 28,6 C 5,2 C 74 % 73 % 1007,0 hPa 0,0 l/m 0,0 km/h (0 Bft) - - 1,00 h 18,4 C 28,6 C 0,0 km/h (0 Bft)
25.08.2023 09:00 24,2 C 21,2 C 23,1 C 28,6 C 28,6 C 4,4 C 71 % 72 % 1007,0 hPa 0,0 l/m 0,0 km/h (0 Bft) - - 1,00 h 18,7 C 28,6 C 0,0 km/h (0 Bft)
25.08.2023 10:00 25,2 C 21,2 C 24,4 C 28,6 C 28,6 C 3,4 C 69 % 70 % 1007,1 hPa 0,0 l/m 0,0 km/h (0 Bft) - - 0,52 h 19,1 C 28,6 C 0,0 km/h (0 Bft)
25.08.2023 11:00 26,5 C 21,2 C 26,1 C 28,6 C 28,6 C 2,1 C 65 % 65 % 1007,3 hPa 0,0 l/m 0,0 km/h (0 Bft) - - 0,00 h 19,4 C 28,6 C 0,0 km/h (0 Bft)
25.08.2023 12:00 27,2 C 21,3 C 26,6 C 28,6 C 28,6 C 1,5 C 63 % 64 % 1007,9 hPa 0,0 l/m 0,0 km/h (0 Bft) - - 0,00 h 19,5 C 28,6 C 0,0 km/h (0 Bft)
25.08.2023 13:00 27,5 C 21,3 C 26,2 C 28,6 C 28,6 C 1,1 C 61 % 64 % 1008,0 hPa 0,0 l/m 0,0 km/h (0 Bft) - - 0,00 h 19,2 C 28,6 C 0,0 km/h (0 Bft)
25.08.2023 14:00 26,3 C 21,4 C 25,2 C 28,6 C 28,6 C 2,3 C 67 % 74 % 1007,7 hPa 0,0 l/m 0,0 km/h (0 Bft) - - 0,00 h 19,7 C 28,6 C 0,0 km/h (0 Bft)
25.08.2023 15:00 27,7 C 21,6 C 27,1 C 28,6 C 28,6 C 0,9 C 61 % 63 % 1007,0 hPa 0,0 l/m 0,0 km/h (0 Bft) - - 0,00 h 19,3 C 28,6 C 0,0 km/h (0 Bft)
25.08.2023 16:00 27,8 C 21,6 C 27,4 C 28,6 C 28,6 C 0,8 C 59 % 60 % 1006,8 hPa 0,0 l/m 0,0 km/h (0 Bft) - - 0,00 h 19,1 C 28,6 C 0,0 km/h (0 Bft)
25.08.2023 17:00 27,7 C 21,6 C 27,0 C 28,6 C 28,6 C 0,9 C 59 % 59 % 1006,3 hPa 0,0 l/m 0,0 km/h (0 Bft) - - 0,00 h 18,8 C 28,6 C 0,0 km/h (0 Bft)
25.08.2023 18:00 26,7 C 21,7 C 26,0 C 28,6 C 28,6 C 1,9 C 60 % 58 % 1006,3 hPa 0,0 l/m 0,0 km/h (0 Bft) - - 0,23 h 18,2 C 28,6 C 0,0 km/h (0 Bft)
25.08.2023 19:00 26,0 C 21,8 C 25,5 C 28,6 C 28,6 C 2,6 C 62 % 59 % 1006,1 hPa 0,0 l/m 0,0 km/h (0 Bft) - - 1,00 h 18,1 C 28,6 C 0,0 km/h (0 Bft)
25.08.2023 20:00 25,0 C 21,9 C 24,3 C 28,6 C 28,6 C 3,6 C 64 % 62 % 1006,9 hPa 0,0 l/m 0,0 km/h (0 Bft) - - 0,00 h 17,8 C 28,6 C 0,0 km/h (0 Bft)
25.08.2023 21:00 22,2 C 22,0 C 21,4 C 28,6 C 28,6 C 6,4 C 74 % 73 % 1007,8 hPa 0,0 l/m 0,0 km/h (0 Bft) - - 0,00 h 17,4 C 28,6 C 0,0 km/h (0 Bft)
25.08.2023 22:00 20,0 C 22,2 C 19,3 C 28,6 C 28,6 C 8,6 C 80 % 78 % 1007,4 hPa 0,0 l/m 0,0 km/h (0 Bft) - - 0,00 h 16,5 C 28,6 C 0,0 km/h (0 Bft)
25.08.2023 23:00 19,1 C 22,2 C 18,5 C 28,6 C 28,6 C 9,5 C 83 % 81 % 1006,7 hPa 0,0 l/m 0,0 km/h (0 Bft) - - 0,00 h 16,1 C 28,6 C 0,0 km/h (0 Bft)
26.08.2023 00:00 18,5 C 22,0 C 18,2 C 28,6 C 28,6 C 10,1 C 85 % 83 % 1006,6 hPa 0,0 l/m 0,0 km/h (0 Bft) - - 0,00 h 15,9 C 28,6 C 0,0 km/h (0 Bft)
26.08.2023 01:00 19,0 C 21,8 C 18,8 C 28,6 C 28,6 C 9,6 C 86 % 81 % 1006,6 hPa 0,0 l/m 0,0 km/h (0 Bft) - - 0,00 h 16,6 C 28,6 C 0,0 km/h (0 Bft)
26.08.2023 02:00 19,1 C 21,8 C 18,9 C 28,6 C 28,6 C 9,5 C 86 % 82 % 1006,1 hPa 0,0 l/m 0,0 km/h (0 Bft) - - 0,00 h 16,7 C 28,6 C 0,0 km/h (0 Bft)
26.08.2023 03:00 19,9 C 21,5 C 20,2 C 28,6 C 28,6 C 8,7 C 86 % 80 % 1005,6 hPa 0,0 l/m 0,0 km/h (0 Bft) - - 0,00 h 17,4 C 28,6 C 0,0 km/h (0 Bft)
26.08.2023 04:00 21,5 C 21,4 C 21,4 C 28,6 C 28,6 C 7,1 C 79 % 74 % 1005,7 hPa 0,0 l/m 0,0 km/h (0 Bft) - - 0,00 h 17,7 C 28,6 C 0,0 km/h (0 Bft)
26.08.2023 05:00 21,3 C 21,3 C 20,4 C 28,6 C 28,6 C 7,3 C 74 % 73 % 1005,9 hPa 0,0 l/m 0,0 km/h (0 Bft) - - 0,00 h 16,6 C 28,6 C 0,0 km/h (0 Bft)
26.08.2023 06:00 20,2 C 21,4 C 19,2 C 28,6 C 28,6 C 8,4 C 79 % 81 % 1006,9 hPa 0,0 l/m 0,0 km/h (0 Bft) - - 0,73 h 16,4 C 28,6 C 0,0 km/h (0 Bft)
26.08.2023 07:00 20,3 C 21,4 C 19,5 C 28,6 C 28,6 C 8,4 C 83 % 88 % 1007,0 hPa 0,0 l/m 0,0 km/h (0 Bft) - - 1,00 h 17,3 C 28,6 C 0,0 km/h (0 Bft)
26.08.2023 08:00 20,8 C 21,3 C 20,5 C 28,6 C 28,6 C 7,8 C 83 % 85 % 1006,9 hPa 0,0 l/m 0,0 km/h (0 Bft) - - 1,00 h 17,9 C 28,6 C 0,0 km/h (0 Bft)
26.08.2023 09:00 21,9 C 21,2 C 21,6 C 28,6 C 28,6 C 6,7 C 80 % 79 % 1007,6 hPa 0,0 l/m 0,0 km/h (0 Bft) - - 1,00 h 18,2 C 28,6 C 0,0 km/h (0 Bft)
26.08.2023 10:00 22,4 C 21,3 C 21,8 C 28,6 C 28,6 C 6,2 C 77 % 78 % 1008,0 hPa 0,0 l/m 0,0 km/h (0 Bft) - - 1,07 h 18,1 C 28,6 C 0,0 km/h (0 Bft)
26.08.2023 11:00 21,2 C 21,4 C 20,5 C 28,6 C 28,6 C 7,4 C 82 % 86 % 1008,4 hPa 0,0 l/m 0,0 km/h (0 Bft) - - 0,93 h 17,9 C 28,6 C 0,0 km/h (0 Bft)
26.08.2023 12:00 23,8 C 21,2 C 23,0 C 28,6 C 28,6 C 4,8 C 73 % 77 % 1008,5 hPa 0,0 l/m 0,0 km/h (0 Bft) - - 1,00 h 18,6 C 28,6 C 0,0 km/h (0 Bft)
26.08.2023 13:00 27,1 C 21,2 C 24,4 C 28,6 C 28,6 C 1,5 C 60 % 68 % 1008,0 hPa 0,0 l/m 0,0 km/h (0 Bft) - - 0,00 h 18,5 C 28,6 C 0,0 km/h (0 Bft)
26.08.2023 14:00 27,1 C 21,2 C 25,6 C 28,6 C 28,6 C 1,5 C 57 % 61 % 1007,9 hPa 0,0 l/m 0,0 km/h (0 Bft) - - 0,00 h 17,7 C 28,6 C 0,0 km/h (0 Bft)
26.08.2023 15:00 26,0 C 21,2 C 25,1 C 28,6 C 28,6 C 2,6 C 58 % 60 % 1008,1 hPa 0,0 l/m 0,0 km/h (0 Bft) - - 0,00 h 17,2 C 28,6 C 0,0 km/h (0 Bft)
26.08.2023 16:00 25,5 C 21,3 C 24,8 C 28,6 C 28,6 C 3,1 C 61 % 59 % 1008,1 hPa 0,0 l/m 0,0 km/h (0 Bft) - - 0,23 h 17,4 C 28,6 C 0,0 km/h (0 Bft)
26.08.2023 17:00 23,5 C 21,4 C 22,9 C 28,6 C 28,6 C 5,1 C 63 % 59 % 1008,8 hPa 0,0 l/m 0,0 km/h (0 Bft) - - 1,02 h 15,9 C 28,6 C 0,0 km/h (0 Bft)
26.08.2023 18:00 21,9 C 21,4 C 21,0 C 28,6 C 28,6 C 6,7 C 64 % 62 % 1008,9 hPa 0,0 l/m 0,0 km/h (0 Bft) - - 0,98 h 14,8 C 28,6 C 0,0 km/h (0 Bft)
26.08.2023 19:00 19,7 C 21,6 C 18,4 C 28,6 C 28,6 C 8,9 C 75 % 83 % 1009,4 hPa 0,7 l/m 0,0 km/h (0 Bft) - - 1,00 h 15,2 C 28,6 C 0,0 km/h (0 Bft)
26.08.2023 20:00 18,4 C 21,7 C 17,6 C 28,6 C 28,6 C 10,2 C 83 % 90 % 1009,3 hPa 0,0 l/m 0,0 km/h (0 Bft) - - 0,00 h 15,4 C 28,6 C 0,0 km/h (0 Bft)
26.08.2023 21:00 17,8 C 21,6 C 17,4 C 28,6 C 28,6 C 10,8 C 86 % 90 % 1009,4 hPa 0,0 l/m 0,0 km/h (0 Bft) - - 0,00 h 15,4 C 28,6 C 0,0 km/h (0 Bft)
26.08.2023 22:00 17,5 C 21,5 C 17,4 C 23,5 C 23,4 C 6,1 C 87 % 90 % 1009,8 hPa 0,0 l/m 0,0 km/h (0 Bft) - - 0,00 h 15,3 C 23,4 C 0,0 km/h (0 Bft)
26.08.2023 23:00 17,5 C 21,4 C 17,3 C 17,2 C 16,8 C 0,0 C 87 % 90 % 1009,9 hPa 0,0 l/m 0,0 km/h (0 Bft) - - 0,00 h 15,3 C 16,8 C 0,0 km/h (0 Bft)
27.08.2023 00:00 16,9 C 21,4 C 16,8 C 16,8 C 16,4 C 0,0 C 87 % 90 % 1009,7 hPa 0,0 l/m 0,0 km/h (0 Bft) - - 0,00 h 14,8 C 16,4 C 0,0 km/h (0 Bft)
27.08.2023 01:00 16,8 C 21,3 C 16,9 C 16,7 C 16,5 C 0,0 C 88 % 90 % 1009,7 hPa 0,0 l/m 0,0 km/h (0 Bft) - - 0,00 h 14,8 C 16,5 C 0,0 km/h (0 Bft)
27.08.2023 02:00 16,7 C 21,2 C 17,0 C 16,7 C 16,6 C 0,0 C 88 % 90 % 1009,0 hPa 0,0 l/m 0,0 km/h (0 Bft) - - 0,00 h 14,7 C 16,6 C 0,0 km/h (0 Bft)
27.08.2023 03:00 16,6 C 21,1 C 16,9 C 16,6 C 16,5 C 0,0 C 88 % 90 % 1008,4 hPa 0,0 l/m 0,0 km/h (0 Bft) - - 0,00 h 14,6 C 16,5 C 0,0 km/h (0 Bft)
27.08.2023 04:00 16,4 C 21,0 C 16,8 C 16,5 C 16,5 C 0,1 C 88 % 90 % 1008,2 hPa 0,0 l/m 0,0 km/h (0 Bft) - - 0,00 h 14,4 C 16,5 C 0,0 km/h (0 Bft)
27.08.2023 05:00 16,4 C 20,9 C 16,8 C 16,5 C 16,5 C 0,0 C 88 % 90 % 1007,6 hPa 0,0 l/m 0,0 km/h (0 Bft) - - 0,00 h 14,4 C 16,5 C 0,0 km/h (0 Bft)
27.08.2023 06:00 16,3 C 20,8 C 16,8 C 16,5 C 16,5 C 0,1 C 88 % 90 % 1007,6 hPa 0,0 l/m 0,0 km/h (0 Bft) - - 0,00 h 14,3 C 16,5 C 0,0 km/h (0 Bft)
27.08.2023 07:00 16,3 C 20,8 C 17,0 C 16,7 C 16,7 C 0,4 C 88 % 90 % 1007,4 hPa 0,0 l/m 0,0 km/h (0 Bft) - - 0,00 h 14,3 C 16,7 C 0,0 km/h (0 Bft)
27.08.2023 08:00 16,3 C 20,7 C 17,2 C 17,3 C 17,3 C 1,0 C 88 % 90 % 1007,3 hPa 0,0 l/m 0,0 km/h (0 Bft) - - 0,00 h 14,3 C 17,3 C 0,0 km/h (0 Bft)
27.08.2023 09:00 16,4 C 20,6 C 17,7 C 18,5 C 18,5 C 2,1 C 88 % 90 % 1007,2 hPa 0,0 l/m 0,0 km/h (0 Bft) - - 0,00 h 14,4 C 18,5 C 0,0 km/h (0 Bft)
27.08.2023 10:00 17,3 C 20,6 C 18,6 C 20,3 C 20,3 C 3,0 C 88 % 90 % 1007,3 hPa 0,0 l/m 0,0 km/h (0 Bft) - - 0,33 h 15,3 C 20,3 C 0,0 km/h (0 Bft)
27.08.2023 11:00 19,2 C 20,3 C 19,7 C 22,4 C 22,4 C 3,2 C 86 % 85 % 1007,2 hPa 0,0 l/m 0,0 km/h (0 Bft) - - 0,58 h 16,8 C 22,4 C 0,0 km/h (0 Bft)
27.08.2023 12:00 20,0 C 20,2 C 20,0 C 22,3 C 22,3 C 2,2 C 79 % 79 % 1007,1 hPa 0,0 l/m 0,0 km/h (0 Bft) - - 0,00 h 16,2 C 22,3 C 0,0 km/h (0 Bft)
27.08.2023 13:00 20,9 C 20,1 C 20,6 C 24,0 C 24,0 C 3,1 C 73 % 72 % 1006,8 hPa 0,0 l/m 0,0 km/h (0 Bft) - - 0,37 h 15,8 C 24,0 C 0,0 km/h (0 Bft)
27.08.2023 14:00 20,8 C 20,0 C 20,1 C 22,5 C 22,5 C 1,8 C 65 % 64 % 1006,7 hPa 0,0 l/m 0,0 km/h (0 Bft) - - 0,00 h 14,0 C 22,5 C 0,3 km/h (0 Bft)
27.08.2023 15:00 19,3 C 19,9 C 18,8 C 19,7 C 19,7 C 0,4 C 66 % 62 % 1007,3 hPa 0,0 l/m 0,0 km/h (0 Bft) - - 0,00 h 12,8 C 19,7 C 0,0 km/h (0 Bft)
27.08.2023 16:00 18,5 C 19,8 C 18,1 C 18,9 C 18,9 C 0,5 C 71 % 68 % 1007,5 hPa 0,0 l/m 0,0 km/h (0 Bft) - - 0,00 h 13,2 C 18,9 C 0,0 km/h (0 Bft)
27.08.2023 17:00 18,3 C 19,8 C 17,5 C 18,3 C 18,1 C 0,1 C 75 % 74 % 1007,6 hPa 0,0 l/m 0,0 km/h (0 Bft) - - 0,00 h 13,7 C 18,1 C 0,0 km/h (0 Bft)
27.08.2023 18:00 18,3 C 19,8 C 17,6 C 18,4 C 18,3 C 0,2 C 76 % 75 % 1007,3 hPa 0,0 l/m 0,0 km/h (0 Bft) - - 0,00 h 14,1 C 18,3 C 0,0 km/h (0 Bft)
27.08.2023 19:00 17,9 C 19,8 C 17,1 C 17,6 C 17,1 C 0,0 C 78 % 78 % 1007,2 hPa 0,0 l/m 0,0 km/h (0 Bft) - - 0,00 h 14,0 C 17,1 C 0,0 km/h (0 Bft)
27.08.2023 20:00 17,2 C 19,9 C 16,6 C 16,9 C 16,4 C 0,0 C 79 % 78 % 1007,6 hPa 0,0 l/m 0,0 km/h (0 Bft) - - 0,00 h 13,6 C 16,4 C 0,0 km/h (0 Bft)
27.08.2023 21:00 16,8 C 19,9 C 16,4 C 16,5 C 16,0 C 0,0 C 82 % 80 % 1007,9 hPa 0,0 l/m 0,0 km/h (0 Bft) - - 0,00 h 13,7 C 16,0 C 0,0 km/h (0 Bft)
27.08.2023 22:00 16,5 C 19,9 C 16,1 C 16,3 C 15,9 C 0,0 C 83 % 82 % 1008,2 hPa 0,0 l/m 0,0 km/h (0 Bft) - - 0,00 h 13,7 C 15,9 C 0,0 km/h (0 Bft)
27.08.2023 23:00 16,2 C 20,0 C 15,9 C 16,0 C 15,5 C 0,0 C 85 % 83 % 1008,5 hPa 0,0 l/m 0,0 km/h (0 Bft) - - 0,00 h 13,6 C 15,5 C 0,0 km/h (0 Bft)
Min-Datum _ 24.08.23 27.08.23 24.08.23 27.08.23 27.08.23 21.08.23 24.08.23 23.08.23 26.08.23 - 21.08.23 - - 24.08.23 27.08.23 21.08.23
_ Min-Zeit 06:41 18:10 06:26 23:55 23:50 03:05 15:55 17:25 03:40 - 00:00 - - 06:41 23:50 00:00
Minimum _ 12,8 C 19,7 C 12,6 C 15,7 C 15,2 C 0,0 C 45 % 47 % 1005,5 hPa - 0,0 km/h (0 Bft) - - 10,7 C 15,2 C 0,0 km/h (0 Bft)
Max-Datum _ 21.08.23 21.08.23 21.08.23 21.08.23 21.08.23 24.08.23 21.08.23 21.08.23 21.08.23 26.08.23 21.08.23 - 21.08.23 21.08.23 21.08.23 27.08.23
_ Max-Zeit 14:26 00:27 14:26 14:26 08:26 06:41 04:11 00:27 11:00 19:25 00:00 - 08:26 09:10 08:26 14:05
Maximum _ 30,8 C 23,3 C 29,9 C 30,1 C 28,6 C 15,8 C 88 % 90 % 1018,2 hPa 0,7 l/m 0,0 km/h
- - (0 Bft)
- 0,25 h 21,6 C 28,6 C 2,6 km/h
- - (1 Bft)
Durchschnitt _ 22,0 C 21,4 C 21,3 C 26,7 C 26,6 C 4,7 C 73 % 74 % 1012,0 hPa #0,7 l/m 0,0 km/h (0 Bft) - - #38:36 h 16,7 C 26,6 C 0,0 km/h (0 Bft)
2023 www.wetterstation-wechselburg.de